createdAt,value
2018-11-12T00:00:39.534Z,9.00
2018-11-12T00:03:07.758Z,9.00
2018-11-12T00:05:35.967Z,9.00
2018-11-12T00:08:04.177Z,9.00
2018-11-12T00:10:32.416Z,8.90
2018-11-12T00:13:00.727Z,8.80
2018-11-12T00:15:28.987Z,8.80
2018-11-12T00:17:57.222Z,8.80
2018-11-12T00:20:25.438Z,8.80
2018-11-12T00:22:53.718Z,8.80
2018-11-12T00:25:21.986Z,8.80
2018-11-12T00:27:50.194Z,8.80
2018-11-12T00:30:19.442Z,8.80
2018-11-12T00:32:48.296Z,8.80
2018-11-12T00:35:16.530Z,8.70
2018-11-12T00:37:45.478Z,8.70
2018-11-12T00:40:15.793Z,8.70
2018-11-12T00:42:44.473Z,8.70
2018-11-12T00:45:12.955Z,8.70
2018-11-12T00:47:41.314Z,8.70
2018-11-12T00:50:10.841Z,8.50
2018-11-12T00:52:39.428Z,8.40
2018-11-12T00:55:09.247Z,8.20
2018-11-12T00:57:37.566Z,8.10
2018-11-12T01:00:10.399Z,8.10
2018-11-12T01:02:39.507Z,8.10
2018-11-12T01:05:07.826Z,8.20
2018-11-12T01:07:36.053Z,8.30
2018-11-12T01:10:05.966Z,8.20
2018-11-12T01:12:34.236Z,8.10
2018-11-12T01:15:02.469Z,8.00
2018-11-12T01:17:30.795Z,7.90
2018-11-12T01:19:59.011Z,7.70
2018-11-12T01:22:27.243Z,7.60
2018-11-12T01:24:55.480Z,7.40
2018-11-12T01:27:23.688Z,7.40
2018-11-12T01:29:51.918Z,7.30
2018-11-12T01:32:20.138Z,7.40
2018-11-12T01:34:48.365Z,7.40
2018-11-12T01:37:16.593Z,7.50
2018-11-12T01:39:44.839Z,7.40
2018-11-12T01:42:13.160Z,7.30
2018-11-12T01:44:41.362Z,7.20
2018-11-12T01:47:09.596Z,7.30
2018-11-12T01:49:37.826Z,7.20
2018-11-12T01:52:06.383Z,7.10
2018-11-12T01:54:34.666Z,7.00
2018-11-12T01:57:02.904Z,7.00
2018-11-12T01:59:31.175Z,6.90
2018-11-12T02:01:59.456Z,6.90
2018-11-12T02:04:27.689Z,7.00
2018-11-12T02:06:55.913Z,7.00
2018-11-12T02:09:24.170Z,7.00
2018-11-12T02:11:52.389Z,7.10
2018-11-12T02:14:20.671Z,7.10
2018-11-12T02:16:48.867Z,7.20
2018-11-12T02:19:17.115Z,7.20
2018-11-12T02:21:45.306Z,7.10
2018-11-12T02:24:13.750Z,7.00
2018-11-12T02:26:41.953Z,6.90
2018-11-12T02:29:10.205Z,6.80
2018-11-12T02:31:38.390Z,6.70
2018-11-12T02:34:06.598Z,6.70
2018-11-12T02:36:34.809Z,6.70
2018-11-12T02:39:03.138Z,6.70
2018-11-12T02:41:31.358Z,6.80
2018-11-12T02:43:59.585Z,6.80
2018-11-12T02:46:27.812Z,6.90
2018-11-12T02:48:56.019Z,6.90
2018-11-12T02:51:24.321Z,6.90
2018-11-12T02:53:52.490Z,6.90
2018-11-12T02:56:20.724Z,6.90
2018-11-12T02:58:48.915Z,6.80
2018-11-12T03:01:21.793Z,6.80
2018-11-12T03:03:50.432Z,6.70
2018-11-12T03:06:18.663Z,6.70
2018-11-12T03:08:46.867Z,6.60
2018-11-12T03:11:15.127Z,6.50
2018-11-12T03:13:43.350Z,6.50
2018-11-12T03:16:11.812Z,6.50
2018-11-12T03:18:40.015Z,6.50
2018-11-12T03:21:08.214Z,6.50
2018-11-12T03:23:36.642Z,6.50
2018-11-12T03:26:04.995Z,6.50
2018-11-12T03:28:33.269Z,6.50
2018-11-12T03:31:01.834Z,6.30
2018-11-12T03:33:30.027Z,6.20
2018-11-12T03:35:58.240Z,6.20
2018-11-12T03:38:26.481Z,6.20
2018-11-12T03:40:54.703Z,6.10
2018-11-12T03:43:22.917Z,6.00
2018-11-12T03:45:51.142Z,5.90
2018-11-12T03:48:19.360Z,5.90
2018-11-12T03:50:47.748Z,5.90
2018-11-12T03:53:15.994Z,5.90
2018-11-12T03:55:44.223Z,5.90
2018-11-12T03:58:12.435Z,5.80
2018-11-12T04:00:40.646Z,5.80
2018-11-12T04:03:08.859Z,5.90
2018-11-12T04:05:37.091Z,5.90
2018-11-12T04:08:05.375Z,5.90
2018-11-12T04:10:33.671Z,6.00
2018-11-12T04:13:01.991Z,6.00
2018-11-12T04:15:30.256Z,6.00
2018-11-12T04:17:58.478Z,6.00
2018-11-12T04:20:26.755Z,6.00
2018-11-12T04:23:01.795Z,6.00
2018-11-12T04:25:30.113Z,6.10
2018-11-12T04:27:58.346Z,6.10
2018-11-12T04:30:26.569Z,6.10
2018-11-12T04:32:54.815Z,6.00
2018-11-12T04:35:23.052Z,6.00
2018-11-12T04:37:51.343Z,6.00
2018-11-12T04:40:19.818Z,6.00
2018-11-12T04:42:48.675Z,6.00
2018-11-12T04:45:18.957Z,6.00
2018-11-12T04:47:48.020Z,6.00
2018-11-12T04:50:18.259Z,6.10
2018-11-12T04:52:46.905Z,6.00
2018-11-12T04:55:16.452Z,5.90
2018-11-12T04:57:45.243Z,5.90
2018-11-12T05:00:16.522Z,5.80
2018-11-12T05:02:44.741Z,5.70
2018-11-12T05:05:14.160Z,5.70
2018-11-12T05:07:42.976Z,5.70
2018-11-12T05:10:13.173Z,5.70
2018-11-12T05:12:42.064Z,5.80
2018-11-12T05:15:12.178Z,5.80
2018-11-12T05:17:40.510Z,5.80
2018-11-12T05:20:12.339Z,5.80
2018-11-12T05:22:41.019Z,5.80
2018-11-12T05:25:09.726Z,5.70
2018-11-12T05:27:38.002Z,5.60
2018-11-12T05:30:13.101Z,5.50
2018-11-12T05:32:41.413Z,5.50
2018-11-12T05:35:09.704Z,5.50
2018-11-12T05:37:38.063Z,5.50
2018-11-12T05:40:08.500Z,5.50
2018-11-12T05:42:36.846Z,5.60
2018-11-12T05:45:05.842Z,5.60
2018-11-12T05:47:34.121Z,5.50
2018-11-12T05:50:02.423Z,5.50
2018-11-12T05:52:30.798Z,5.50
2018-11-12T05:54:59.441Z,5.60
2018-11-12T05:57:27.675Z,5.60
2018-11-12T05:59:55.935Z,5.60
2018-11-12T06:02:24.283Z,5.50
2018-11-12T06:04:52.742Z,5.60
2018-11-12T06:07:20.967Z,5.70
2018-11-12T06:09:49.304Z,5.70
2018-11-12T06:12:17.619Z,5.70
2018-11-12T06:14:45.873Z,5.70
2018-11-12T06:17:14.174Z,5.60
2018-11-12T06:19:42.450Z,5.50
2018-11-12T06:22:10.806Z,5.50
2018-11-12T06:24:39.126Z,5.50
2018-11-12T06:27:07.387Z,5.60
2018-11-12T06:29:35.692Z,5.70
2018-11-12T06:32:04.139Z,5.70
2018-11-12T06:34:32.495Z,5.70
2018-11-12T06:37:00.778Z,5.80
2018-11-12T06:39:29.065Z,5.90
2018-11-12T06:41:57.449Z,5.90
2018-11-12T06:44:25.821Z,6.00
2018-11-12T06:46:54.209Z,6.10
2018-11-12T06:49:22.562Z,6.10
2018-11-12T06:51:50.855Z,6.10
2018-11-12T06:54:19.128Z,6.10
2018-11-12T06:56:47.518Z,6.10
2018-11-12T06:59:15.798Z,6.10
2018-11-12T07:01:44.094Z,6.10
2018-11-12T07:04:12.365Z,6.20
2018-11-12T07:06:40.731Z,6.20
2018-11-12T07:09:10.997Z,6.20
2018-11-12T07:11:39.226Z,6.30
2018-11-12T07:14:07.629Z,6.40
2018-11-12T07:16:36.252Z,6.40
2018-11-12T07:19:04.605Z,6.50
2018-11-12T07:21:32.817Z,6.70
2018-11-12T07:24:01.090Z,6.90
2018-11-12T07:26:29.353Z,7.10
2018-11-12T07:28:57.630Z,7.40
2018-11-12T07:31:26.048Z,7.70
2018-11-12T07:33:54.227Z,8.00
2018-11-12T07:36:22.499Z,8.30
2018-11-12T07:38:50.733Z,8.60
2018-11-12T07:41:18.951Z,9.00
2018-11-12T07:43:47.184Z,9.30
2018-11-12T07:46:15.497Z,9.50
2018-11-12T07:48:43.788Z,9.60
2018-11-12T07:51:12.029Z,9.80
2018-11-12T07:53:40.250Z,9.90
2018-11-12T07:56:08.492Z,9.80
2018-11-12T07:58:38.996Z,10.00
2018-11-12T08:01:10.138Z,10.20
2018-11-12T08:03:38.507Z,10.30
2018-11-12T08:06:06.658Z,10.30
2018-11-12T08:08:34.929Z,10.10
2018-11-12T08:11:03.354Z,10.00
2018-11-12T08:13:31.624Z,10.00
2018-11-12T08:15:59.940Z,9.80
2018-11-12T08:18:28.236Z,9.80
2018-11-12T08:20:56.552Z,9.70
2018-11-12T08:23:24.840Z,9.60
2018-11-12T08:25:53.131Z,9.90
2018-11-12T08:28:21.396Z,10.10
2018-11-12T08:30:49.662Z,10.10
2018-11-12T08:33:17.932Z,10.20
2018-11-12T08:35:46.246Z,10.50
2018-11-12T08:38:14.523Z,10.60
2018-11-12T08:40:42.919Z,10.50
2018-11-12T08:43:11.081Z,10.30
2018-11-12T08:45:39.328Z,10.20
2018-11-12T08:48:07.626Z,10.30
2018-11-12T08:50:35.902Z,10.30
2018-11-12T08:53:04.358Z,10.20
2018-11-12T08:55:32.681Z,10.40
2018-11-12T08:58:02.474Z,10.60
2018-11-12T09:00:30.869Z,10.70
2018-11-12T09:02:59.254Z,10.80
2018-11-12T09:05:28.841Z,10.70
2018-11-12T09:07:58.317Z,10.50
2018-11-12T09:10:30.906Z,10.50
2018-11-12T09:12:59.114Z,10.70
2018-11-12T09:15:27.395Z,10.80
2018-11-12T09:17:55.562Z,11.00
2018-11-12T09:20:25.039Z,10.80
2018-11-12T09:22:53.700Z,10.90
2018-11-12T09:25:22.946Z,11.20
2018-11-12T09:27:51.236Z,11.30
2018-11-12T09:30:22.768Z,11.50
2018-11-12T09:32:51.108Z,11.50
2018-11-12T09:35:22.496Z,11.40
2018-11-12T09:37:51.952Z,11.60
2018-11-12T09:40:24.634Z,11.80
2018-11-12T09:42:52.927Z,11.90
2018-11-12T09:45:21.175Z,12.30
2018-11-12T09:47:49.477Z,12.70
2018-11-12T09:50:18.978Z,13.10
2018-11-12T09:52:48.372Z,13.50
2018-11-12T09:55:17.652Z,13.80
2018-11-12T09:57:47.353Z,14.20
2018-11-12T10:00:16.763Z,14.60
2018-11-12T10:02:46.772Z,14.90
2018-11-12T10:05:15.706Z,14.70
2018-11-12T10:07:44.754Z,14.60
2018-11-12T10:10:20.522Z,14.80
2018-11-12T10:12:49.415Z,14.30
2018-11-12T10:15:18.825Z,14.10
2018-11-12T10:17:46.606Z,14.30
2018-11-12T10:20:11.919Z,14.50
2018-11-12T10:22:40.380Z,14.20
2018-11-12T10:25:08.750Z,14.20
2018-11-12T10:27:37.082Z,14.30
2018-11-12T10:30:06.224Z,14.40
2018-11-12T10:32:34.556Z,14.30
2018-11-12T10:35:02.830Z,14.10
2018-11-12T10:37:31.096Z,14.20
2018-11-12T10:39:59.384Z,14.00
2018-11-12T10:42:27.869Z,14.00
2018-11-12T10:44:56.129Z,13.80
2018-11-12T10:47:24.439Z,13.70
2018-11-12T10:49:53.574Z,13.70
2018-11-12T10:52:21.858Z,13.70
2018-11-12T10:55:04.036Z,13.90
2018-11-12T10:57:18.565Z,13.70
2018-11-12T10:59:46.882Z,13.70
2018-11-12T11:03:18.038Z,13.80
2018-11-12T11:05:47.956Z,13.70
2018-11-12T11:08:16.615Z,13.30
2018-11-12T11:10:44.934Z,13.20
2018-11-12T11:13:13.153Z,13.10
2018-11-12T11:15:41.466Z,13.00
2018-11-12T11:18:09.638Z,13.10
2018-11-12T11:20:37.884Z,13.00
2018-11-12T11:23:06.151Z,13.00
2018-11-12T11:25:34.519Z,13.10
2018-11-12T11:28:02.726Z,13.20
2018-11-12T11:30:30.962Z,13.20
2018-11-12T11:32:59.316Z,13.30
2018-11-12T11:35:27.612Z,13.40
2018-11-12T11:37:55.948Z,13.30
2018-11-12T11:40:25.532Z,13.30
2018-11-12T11:42:53.722Z,13.50
2018-11-12T11:45:22.382Z,13.50
2018-11-12T11:47:51.561Z,13.40
2018-11-12T11:50:22.138Z,13.40
2018-11-12T11:52:50.277Z,13.50
2018-11-12T11:55:19.825Z,13.50
2018-11-12T11:57:48.530Z,13.60
2018-11-12T12:00:22.912Z,13.70
2018-11-12T12:02:52.183Z,13.80
2018-11-12T12:05:21.237Z,13.90
2018-11-12T12:07:49.869Z,13.90
2018-11-12T12:10:18.245Z,14.00
2018-11-12T12:12:47.615Z,14.10
2018-11-12T12:15:17.383Z,14.10
2018-11-12T12:17:45.793Z,14.20
2018-11-12T12:20:29.571Z,14.30
2018-11-12T12:22:58.029Z,14.40
2018-11-12T12:25:26.416Z,14.40
2018-11-12T12:27:54.606Z,14.50
2018-11-12T12:30:24.197Z,14.40
2018-11-12T12:32:53.627Z,14.30
2018-11-12T12:35:21.874Z,14.30
2018-11-12T12:37:50.140Z,14.40
2018-11-12T12:40:19.925Z,14.50
2018-11-12T12:42:48.347Z,14.50
2018-11-12T12:45:18.007Z,14.50
2018-11-12T12:47:46.728Z,14.50
2018-11-12T12:50:15.919Z,14.50
2018-11-12T12:52:44.198Z,14.40
2018-11-12T12:55:13.657Z,14.40
2018-11-12T12:57:42.810Z,14.30
2018-11-12T13:00:13.718Z,14.30
2018-11-12T13:02:42.077Z,14.30
2018-11-12T13:05:10.386Z,14.30
2018-11-12T13:07:39.038Z,14.30
2018-11-12T13:10:08.699Z,14.30
2018-11-12T13:12:37.017Z,14.50
2018-11-12T13:15:07.177Z,14.60
2018-11-12T13:17:35.689Z,14.70
2018-11-12T13:20:03.961Z,14.60
2018-11-12T13:22:32.237Z,14.50
2018-11-12T13:25:00.502Z,14.50
2018-11-12T13:27:28.824Z,14.40
2018-11-12T13:29:57.320Z,14.40
2018-11-12T13:32:25.558Z,14.30
2018-11-12T13:34:53.818Z,14.30
2018-11-12T13:37:22.063Z,14.20
2018-11-12T13:39:50.311Z,14.10
2018-11-12T13:42:19.231Z,14.10
2018-11-12T13:44:47.485Z,13.70
2018-11-12T13:47:15.731Z,13.70
2018-11-12T13:49:44.005Z,13.70
2018-11-12T13:52:12.343Z,13.70
2018-11-12T13:54:40.618Z,13.70
2018-11-12T13:57:08.896Z,13.80
2018-11-12T13:59:37.210Z,13.80
2018-11-12T14:02:05.532Z,13.70
2018-11-12T14:04:33.766Z,13.70
2018-11-12T14:07:02.111Z,13.70
2018-11-12T14:09:30.407Z,13.70
2018-11-12T14:11:58.739Z,13.70
2018-11-12T14:14:26.959Z,13.70
2018-11-12T14:16:55.451Z,13.70
2018-11-12T14:19:23.712Z,13.70
2018-11-12T14:21:52.005Z,13.70
2018-11-12T14:24:20.354Z,13.70
2018-11-12T14:26:48.638Z,13.70
2018-11-12T14:29:16.923Z,13.70
2018-11-12T14:31:45.189Z,13.60
2018-11-12T14:34:13.447Z,13.60
2018-11-12T14:36:42.070Z,13.70
2018-11-12T14:39:10.810Z,13.60
2018-11-12T14:41:39.369Z,13.60
2018-11-12T14:44:07.747Z,13.60
2018-11-12T14:46:36.095Z,13.50
2018-11-12T14:49:04.439Z,13.50
2018-11-12T14:51:32.780Z,13.50
2018-11-12T14:54:01.152Z,13.50
2018-11-12T14:56:29.394Z,13.40
2018-11-12T14:58:57.839Z,13.30
2018-11-12T15:01:26.251Z,13.20
2018-11-12T15:03:54.495Z,13.20
2018-11-12T15:06:22.741Z,13.10
2018-11-12T15:08:51.072Z,13.10
2018-11-12T15:11:19.294Z,13.10
2018-11-12T15:13:47.599Z,13.10
2018-11-12T15:16:15.887Z,13.10
2018-11-12T15:18:44.118Z,12.90
2018-11-12T15:21:12.450Z,12.90
2018-11-12T15:23:40.730Z,12.90
2018-11-12T15:26:09.001Z,13.00
2018-11-12T15:28:37.332Z,12.90
2018-11-12T15:31:05.735Z,12.80
2018-11-12T15:33:34.050Z,12.80
2018-11-12T15:36:02.442Z,12.80
2018-11-12T15:38:30.678Z,12.80
2018-11-12T15:40:59.146Z,12.80
2018-11-12T15:43:27.463Z,12.70
2018-11-12T15:45:55.820Z,12.70
2018-11-12T15:48:24.131Z,12.70
2018-11-12T15:50:52.452Z,12.70
2018-11-12T15:53:20.747Z,12.70
2018-11-12T15:55:49.038Z,12.70
2018-11-12T15:58:17.501Z,12.60
2018-11-12T16:00:45.694Z,12.60
2018-11-12T16:03:14.002Z,12.60
2018-11-12T16:05:42.386Z,12.60
2018-11-12T16:08:10.711Z,12.60
2018-11-12T16:10:39.055Z,12.60
2018-11-12T16:13:07.286Z,12.60
2018-11-12T16:15:35.564Z,12.50
2018-11-12T16:18:03.831Z,12.50
2018-11-12T16:20:32.200Z,12.40
2018-11-12T16:23:01.220Z,12.40
2018-11-12T16:25:29.842Z,12.30
2018-11-12T16:27:58.216Z,12.40
2018-11-12T16:30:26.453Z,12.30
2018-11-12T16:32:54.696Z,12.30
2018-11-12T16:35:23.922Z,12.30
2018-11-12T16:37:53.244Z,12.30
2018-11-12T16:40:22.039Z,12.10
2018-11-12T16:42:50.833Z,11.90
2018-11-12T16:45:19.113Z,11.80
2018-11-12T16:47:47.491Z,11.70
2018-11-12T16:50:16.382Z,11.60
2018-11-12T16:52:44.741Z,11.50
2018-11-12T16:55:17.101Z,11.50
2018-11-12T16:57:45.646Z,11.60
2018-11-12T17:00:14.990Z,11.60
2018-11-12T17:02:43.758Z,11.60
2018-11-12T17:05:13.322Z,11.60
2018-11-12T17:07:41.639Z,11.60
2018-11-12T17:10:12.200Z,11.60
2018-11-12T17:12:41.421Z,11.70
2018-11-12T17:15:10.438Z,11.60
2018-11-12T17:17:38.935Z,11.50
2018-11-12T17:20:08.170Z,11.50
2018-11-12T17:22:36.758Z,11.50
2018-11-12T17:25:05.980Z,11.50
2018-11-12T17:27:34.230Z,11.40
2018-11-12T17:30:02.511Z,11.30
2018-11-12T17:32:31.159Z,11.40
2018-11-12T17:34:59.421Z,11.30
2018-11-12T17:37:27.685Z,11.30
2018-11-12T17:39:55.916Z,11.30
2018-11-12T17:42:24.191Z,11.30
2018-11-12T17:44:52.456Z,11.20
2018-11-12T17:47:21.198Z,11.20
2018-11-12T17:49:49.574Z,11.20
2018-11-12T17:52:17.816Z,11.20
2018-11-12T17:54:46.537Z,11.20
2018-11-12T17:57:14.810Z,11.20
2018-11-12T17:59:43.061Z,11.20
2018-11-12T18:02:11.334Z,11.10
2018-11-12T18:04:39.647Z,11.10
2018-11-12T18:07:08.004Z,11.00
2018-11-12T18:09:36.206Z,11.00
2018-11-12T18:12:05.238Z,11.00
2018-11-12T18:14:33.474Z,11.10
2018-11-12T18:17:01.714Z,11.00
2018-11-12T18:19:29.934Z,11.10
2018-11-12T18:21:58.166Z,11.00
2018-11-12T18:24:26.467Z,11.00
2018-11-12T18:26:54.705Z,11.00
2018-11-12T18:29:22.946Z,11.00
2018-11-12T18:31:51.302Z,10.90
2018-11-12T18:34:19.396Z,10.90
2018-11-12T18:36:47.671Z,10.70
2018-11-12T18:39:15.878Z,10.70
2018-11-12T18:41:44.149Z,10.60
2018-11-12T18:44:13.246Z,10.50
2018-11-12T18:46:41.509Z,10.50
2018-11-12T18:49:09.767Z,10.50
2018-11-12T18:51:38.158Z,10.50
2018-11-12T18:54:06.500Z,10.40
2018-11-12T18:56:34.799Z,10.30
2018-11-12T18:59:03.086Z,10.30
2018-11-12T19:01:31.362Z,10.30
2018-11-12T19:04:00.100Z,10.20
2018-11-12T19:06:28.694Z,10.30
2018-11-12T19:08:57.037Z,10.40
2018-11-12T19:11:26.118Z,10.50
2018-11-12T19:13:54.436Z,10.40
2018-11-12T19:16:22.817Z,10.40
2018-11-12T19:18:51.055Z,10.40
2018-11-12T19:21:19.350Z,10.30
2018-11-12T19:23:47.597Z,10.20
2018-11-12T19:26:15.882Z,10.10
2018-11-12T19:28:44.163Z,9.90
2018-11-12T19:31:12.535Z,9.90
2018-11-12T19:33:40.800Z,9.80
2018-11-12T19:36:09.066Z,9.80
2018-11-12T19:38:37.318Z,9.80
2018-11-12T19:41:06.323Z,9.90
2018-11-12T19:43:34.618Z,9.90
2018-11-12T19:46:03.001Z,9.90
2018-11-12T19:48:31.327Z,9.90
2018-11-12T19:50:59.694Z,9.80
2018-11-12T19:53:27.940Z,9.80
2018-11-12T19:55:56.224Z,9.60
2018-11-12T19:58:24.496Z,9.60
2018-11-12T20:00:52.952Z,9.50
2018-11-12T20:03:21.290Z,9.50
2018-11-12T20:05:49.632Z,9.40
2018-11-12T20:08:18.133Z,9.40
2018-11-12T20:10:46.352Z,9.30
2018-11-12T20:13:14.615Z,9.20
2018-11-12T20:15:42.958Z,9.20
2018-11-12T20:18:11.178Z,9.20
2018-11-12T20:20:39.499Z,9.10
2018-11-12T20:23:07.799Z,9.00
2018-11-12T20:25:36.305Z,9.00
2018-11-12T20:28:04.609Z,9.10
2018-11-12T20:30:35.145Z,9.10
2018-11-12T20:33:03.694Z,9.10
2018-11-12T20:35:32.038Z,9.10
2018-11-12T20:38:00.322Z,9.20
2018-11-12T20:40:28.540Z,9.20
2018-11-12T20:42:56.864Z,9.30
2018-11-12T20:45:25.543Z,9.30
2018-11-12T20:47:55.073Z,9.30
2018-11-12T20:50:23.273Z,9.30
2018-11-12T20:52:51.564Z,9.40
2018-11-12T20:55:19.936Z,9.40
2018-11-12T20:57:48.203Z,9.30
2018-11-12T21:00:19.310Z,9.30
2018-11-12T21:02:48.930Z,9.10
2018-11-12T21:05:17.599Z,9.10
2018-11-12T21:07:45.807Z,9.20
2018-11-12T21:10:15.583Z,9.10
2018-11-12T21:12:44.196Z,9.00
2018-11-12T21:15:13.567Z,9.00
2018-11-12T21:17:41.938Z,9.00
2018-11-12T21:20:13.422Z,9.00
2018-11-12T21:22:42.038Z,9.10
2018-11-12T21:25:11.595Z,9.10
2018-11-12T21:27:40.183Z,9.10
2018-11-12T21:30:11.838Z,9.00
2018-11-12T21:32:40.157Z,8.90
2018-11-12T21:35:08.515Z,8.80
2018-11-12T21:37:37.310Z,8.70
2018-11-12T21:40:09.167Z,8.60
2018-11-12T21:42:37.450Z,8.60
2018-11-12T21:45:07.201Z,8.50
2018-11-12T21:47:35.837Z,8.50
2018-11-12T21:50:04.682Z,8.50
2018-11-12T21:52:32.891Z,8.50
2018-11-12T21:55:01.125Z,8.50
2018-11-12T21:57:29.415Z,8.50
2018-11-12T21:59:57.771Z,8.30
2018-11-12T22:02:26.071Z,8.30
2018-11-12T22:04:54.285Z,8.30
2018-11-12T22:07:22.551Z,8.30
2018-11-12T22:09:50.825Z,8.20
2018-11-12T22:12:19.102Z,8.20
2018-11-12T22:14:47.481Z,8.20
2018-11-12T22:17:15.732Z,8.20
2018-11-12T22:19:44.175Z,8.20
2018-11-12T22:22:12.214Z,8.10
2018-11-12T22:24:40.908Z,8.00
2018-11-12T22:27:09.140Z,7.90
2018-11-12T22:29:37.394Z,7.90
2018-11-12T22:32:05.692Z,7.90
2018-11-12T22:34:33.974Z,7.90
2018-11-12T22:37:02.234Z,7.80
2018-11-12T22:39:30.493Z,7.90
2018-11-12T22:41:58.701Z,7.90
2018-11-12T22:44:26.991Z,7.90
2018-11-12T22:46:55.240Z,7.90
2018-11-12T22:49:23.511Z,7.80
2018-11-12T22:51:51.721Z,7.80
2018-11-12T22:54:19.943Z,7.70
2018-11-12T22:56:48.247Z,7.70
2018-11-12T22:59:16.493Z,7.60
2018-11-12T23:01:44.706Z,7.60
2018-11-12T23:04:12.971Z,7.60
2018-11-12T23:06:41.270Z,7.60
2018-11-12T23:09:16.769Z,7.60
2018-11-12T23:11:45.183Z,7.60
2018-11-12T23:14:14.455Z,7.60
2018-11-12T23:16:43.344Z,7.50
2018-11-12T23:19:11.605Z,7.50
2018-11-12T23:21:40.779Z,7.40
2018-11-12T23:24:09.060Z,7.40
2018-11-12T23:26:37.825Z,7.40
2018-11-12T23:29:06.098Z,7.40
2018-11-12T23:31:34.360Z,7.40
2018-11-12T23:34:02.643Z,7.40
2018-11-12T23:36:30.890Z,7.40
2018-11-12T23:38:59.132Z,7.40
2018-11-12T23:41:27.375Z,7.40
2018-11-12T23:43:55.615Z,7.40
2018-11-12T23:46:23.895Z,7.50
2018-11-12T23:48:52.122Z,7.40
2018-11-12T23:51:20.350Z,7.40
2018-11-12T23:53:48.576Z,7.40
2018-11-12T23:56:16.811Z,7.40
2018-11-12T23:58:45.138Z,7.40
